createdAt,value
2018-04-28T00:02:32.225Z,11.48
2018-04-28T00:08:42.108Z,11.62
2018-04-28T00:14:47.042Z,11.52
2018-04-28T00:27:24.076Z,11.61
2018-04-28T00:33:31.829Z,11.57
2018-04-28T00:39:52.276Z,11.46
2018-04-28T00:46:19.747Z,11.22
2018-04-28T00:52:28.683Z,11.40
2018-04-28T00:59:03.230Z,11.21
2018-04-28T01:05:10.497Z,11.00
2018-04-28T01:18:10.209Z,10.53
2018-04-28T01:31:14.316Z,9.80
2018-04-28T01:37:52.394Z,9.61
2018-04-28T01:44:11.805Z,9.46
2018-04-28T01:50:17.090Z,9.25
2018-04-28T01:56:37.688Z,9.05
2018-04-28T02:02:49.907Z,9.03
2018-04-28T02:09:09.809Z,9.04
2018-04-28T02:15:34.693Z,9.07
2018-04-28T02:22:06.639Z,8.98
2018-04-28T02:28:33.194Z,9.00
2018-04-28T02:34:55.477Z,8.92
2018-04-28T02:48:00.389Z,8.87
2018-04-28T02:54:07.988Z,8.76
2018-04-28T03:06:51.912Z,8.72
2018-04-28T03:12:57.111Z,8.68
2018-04-28T03:19:18.487Z,8.62
2018-04-28T03:25:39.856Z,8.58
2018-04-28T03:31:48.089Z,8.39
2018-04-28T03:37:58.499Z,8.34
2018-04-28T03:44:05.210Z,8.27
2018-04-28T03:50:16.042Z,8.30
2018-04-28T04:03:09.594Z,8.40
2018-04-28T04:15:54.037Z,8.25
2018-04-28T04:22:03.869Z,8.36
2018-04-28T04:28:08.675Z,8.22
2018-04-28T04:34:14.063Z,8.35
2018-04-28T04:47:29.188Z,8.73
2018-04-28T04:53:40.950Z,8.80
2018-04-28T05:13:31.625Z,9.62
2018-04-28T05:19:39.184Z,9.86
2018-04-28T05:26:00.180Z,10.23
2018-04-28T05:32:14.049Z,10.25
2018-04-28T05:38:40.498Z,10.49
2018-04-28T05:51:52.214Z,10.77
2018-04-28T05:58:12.756Z,11.32
2018-04-28T06:04:43.518Z,11.64
2018-04-28T06:17:48.890Z,13.13
2018-04-28T06:23:53.520Z,13.75
2018-04-28T06:29:57.554Z,14.10
2018-04-28T06:36:01.589Z,14.25
2018-04-28T06:42:05.628Z,14.81
2018-04-28T06:48:09.667Z,15.05
2018-04-28T06:54:13.784Z,15.37
2018-04-28T07:00:17.835Z,15.59
2018-04-28T07:06:23.060Z,16.00
2018-04-28T07:12:27.364Z,16.07
2018-04-28T07:18:31.399Z,16.33
2018-04-28T07:24:36.233Z,16.63
2018-04-28T07:30:40.487Z,16.59
2018-04-28T07:36:44.594Z,17.27
2018-04-28T07:42:48.854Z,17.41
2018-04-28T07:48:54.442Z,18.03
2018-04-28T07:54:58.773Z,18.51
2018-04-28T08:01:02.874Z,18.94
2018-04-28T08:07:07.015Z,19.57
2018-04-28T08:13:11.159Z,19.50
2018-04-28T08:19:16.053Z,19.43
2018-04-28T08:25:20.240Z,19.74
2018-04-28T08:31:24.485Z,19.86
2018-04-28T08:37:29.349Z,18.91
2018-04-28T08:43:33.502Z,18.90
2018-04-28T08:49:37.602Z,18.81
2018-04-28T08:55:42.499Z,18.65
2018-04-28T09:01:47.318Z,18.45
2018-04-28T09:07:51.377Z,18.52
2018-04-28T09:13:55.842Z,18.49
2018-04-28T09:20:00.210Z,18.12
2018-04-28T09:26:04.647Z,18.35
2018-04-28T09:32:08.992Z,18.27
2018-04-28T09:38:13.354Z,18.55
2018-04-28T09:44:17.726Z,19.49
2018-04-28T09:50:22.715Z,19.69
2018-04-28T09:56:27.227Z,20.69
2018-04-28T10:02:31.609Z,21.15
2018-04-28T10:08:35.975Z,21.28
2018-04-28T10:14:40.333Z,22.03
2018-04-28T10:20:44.685Z,21.86
2018-04-28T10:26:49.253Z,21.64
2018-04-28T10:32:53.726Z,22.72
2018-04-28T10:38:58.094Z,23.22
2018-04-28T10:45:03.287Z,23.18
2018-04-28T10:51:07.663Z,24.12
2018-04-28T10:57:12.789Z,24.83
2018-04-28T11:03:17.143Z,24.59
2018-04-28T11:09:22.494Z,23.61
2018-04-28T11:15:26.870Z,24.38
2018-04-28T11:21:31.222Z,25.56
2018-04-28T11:27:35.579Z,23.88
2018-04-28T11:33:40.259Z,25.19
2018-04-28T11:39:44.620Z,24.78
2018-04-28T11:45:49.044Z,24.82
2018-04-28T11:51:53.460Z,24.86
2018-04-28T11:57:58.623Z,27.08
2018-04-28T12:04:03.071Z,26.81
2018-04-28T12:10:07.424Z,26.81
2018-04-28T12:16:11.774Z,28.75
2018-04-28T12:22:16.979Z,26.40
2018-04-28T12:28:22.367Z,25.83
2018-04-28T12:34:26.758Z,26.48
2018-04-28T12:40:31.138Z,26.48
2018-04-28T12:46:35.488Z,27.33
2018-04-28T12:52:40.617Z,28.56
2018-04-28T12:58:44.980Z,28.09
2018-04-28T13:04:49.577Z,26.11
2018-04-28T13:10:54.766Z,29.04
2018-04-28T13:16:59.126Z,28.84
2018-04-28T13:23:04.474Z,27.64
2018-04-28T13:29:08.874Z,29.74
2018-04-28T13:35:14.036Z,28.30
2018-04-28T13:41:18.496Z,27.93
2018-04-28T13:47:23.175Z,27.42
2018-04-28T13:53:27.527Z,26.70
2018-04-28T13:59:31.994Z,26.92
2018-04-28T14:05:36.341Z,28.66
2018-04-28T14:11:41.465Z,29.56
2018-04-28T14:17:45.876Z,29.16
2018-04-28T14:23:50.398Z,28.48
2018-04-28T14:29:54.922Z,26.05
2018-04-28T14:35:59.372Z,28.87
2018-04-28T14:42:03.737Z,28.73
2018-04-28T14:48:08.867Z,28.90
2018-04-28T14:54:13.252Z,30.49
2018-04-28T15:00:17.607Z,30.58
2018-04-28T15:06:22.102Z,33.36
2018-04-28T15:12:26.463Z,28.41
2018-04-28T15:18:30.845Z,25.05
2018-04-28T15:24:35.288Z,24.51
2018-04-28T15:30:39.651Z,25.99
2018-04-28T15:36:44.775Z,26.12
2018-04-28T15:42:49.125Z,25.02
2018-04-28T15:48:53.677Z,23.85
2018-04-28T15:54:58.075Z,23.42
2018-04-28T16:01:03.192Z,22.91
2018-04-28T16:07:07.559Z,22.25
2018-04-28T16:13:12.028Z,21.98
2018-04-28T16:19:16.393Z,21.93
2018-04-28T16:25:21.556Z,22.15
2018-04-28T16:31:25.943Z,22.35
2018-04-28T16:37:30.292Z,22.21
2018-04-28T16:43:34.655Z,22.19
2018-04-28T16:49:39.044Z,21.94
2018-04-28T16:55:43.401Z,21.72
2018-04-28T17:01:47.855Z,21.36
2018-04-28T17:07:52.249Z,20.89
2018-04-28T17:13:56.640Z,20.54
2018-04-28T17:20:00.986Z,20.23
2018-04-28T17:26:05.346Z,19.81
2018-04-28T17:32:09.826Z,19.30
2018-04-28T17:38:14.196Z,18.97
2018-04-28T17:44:18.685Z,18.76
2018-04-28T17:50:23.221Z,18.55
2018-04-28T17:56:27.572Z,18.31
2018-04-28T18:02:31.943Z,17.95
2018-04-28T18:08:36.303Z,17.78
2018-04-28T18:14:40.693Z,17.46
2018-04-28T18:20:45.031Z,17.18
2018-04-28T18:26:49.521Z,17.13
2018-04-28T18:32:54.123Z,17.06
2018-04-28T18:38:58.551Z,17.18
2018-04-28T18:45:03.705Z,16.92
2018-04-28T18:51:09.649Z,16.86
2018-04-28T18:57:14.092Z,16.75
2018-04-28T19:03:18.456Z,16.78
2018-04-28T19:09:23.400Z,16.77
2018-04-28T19:15:27.779Z,16.51
2018-04-28T19:21:32.139Z,16.62
2018-04-28T19:27:37.276Z,16.71
2018-04-28T19:33:41.638Z,16.61
2018-04-28T19:39:45.996Z,16.47
2018-04-28T19:45:51.287Z,16.77
2018-04-28T19:51:55.718Z,16.71
2018-04-28T19:58:00.132Z,16.71
2018-04-28T20:04:04.535Z,16.68
2018-04-28T20:10:09.071Z,16.48
2018-04-28T20:16:14.284Z,16.51
2018-04-28T20:22:36.566Z,16.31
2018-04-28T20:28:41.677Z,16.29
2018-04-28T20:34:46.058Z,16.22
2018-04-28T20:40:50.439Z,16.21
2018-04-28T20:46:54.864Z,16.20
2018-04-28T20:53:00.000Z,16.02
2018-04-28T20:59:04.355Z,15.98
2018-04-28T21:05:09.475Z,15.77
2018-04-28T21:11:13.933Z,15.44
2018-04-28T21:17:18.305Z,15.45
2018-04-28T21:23:23.436Z,15.21
2018-04-28T21:29:27.795Z,14.92
2018-04-28T21:35:32.158Z,14.61
2018-04-28T21:41:36.532Z,14.69
2018-04-28T21:47:40.930Z,14.49
2018-04-28T21:53:45.287Z,14.34
2018-04-28T21:59:50.019Z,14.29
2018-04-28T22:05:54.720Z,14.51
2018-04-28T22:11:59.099Z,14.61
2018-04-28T22:18:04.257Z,14.70
2018-04-28T22:24:08.606Z,14.72
2018-04-28T22:30:12.973Z,14.75
2018-04-28T22:36:17.344Z,14.72
2018-04-28T22:42:21.699Z,14.73
2018-04-28T22:48:26.216Z,14.77
2018-04-28T22:54:30.733Z,14.86
2018-04-28T23:00:42.495Z,14.78
2018-04-28T23:06:47.382Z,14.90
2018-04-28T23:12:52.071Z,14.69
2018-04-28T23:18:57.266Z,14.61
2018-04-28T23:25:01.799Z,14.49
2018-04-28T23:31:06.156Z,14.58
2018-04-28T23:37:10.526Z,14.72
2018-04-28T23:43:14.888Z,14.85
2018-04-28T23:49:20.053Z,14.67
2018-04-28T23:55:24.610Z,14.76
